Time;durP1;ratioP1;P1;durP2;ratioP2;P2;SDS_P1;SDS_P2;PMS_P1;PMS_P2;Temp;Humidity;BMP_temperature;BMP_pressure;BME280_temperature;BME280_humidity;BME280_pressure;Samples;Min_cycle;Max_cycle;Signal;HPM_P1;HPM_P2
2022/10/22 00:00:34;;;;;;;4.95;3.67;;;13.60;99.90;;;;;;5068178;28;20886;-41
2022/10/22 00:03:03;;;;;;;4.63;3.70;;;13.60;99.90;;;;;;5078524;28;20024;-41
2022/10/22 00:05:28;;;;;;;3.75;3.13;;;13.60;99.90;;;;;;5077031;28;20073;-38
2022/10/22 00:07:54;;;;;;;4.78;3.40;;;13.60;99.90;;;;;;5076000;28;20020;-39
2022/10/22 00:10:19;;;;;;;5.00;3.40;;;13.50;99.90;;;;;;5080307;28;20578;-41
2022/10/22 00:12:45;;;;;;;6.28;3.25;;;13.50;99.90;;;;;;5073720;28;20020;-37
2022/10/22 00:15:11;;;;;;;3.90;3.42;;;13.50;99.90;;;;;;5081932;28;20042;-39
2022/10/22 00:17:37;;;;;;;4.45;3.50;;;13.50;99.90;;;;;;5071784;28;20875;-40
2022/10/22 00:20:03;;;;;;;4.15;3.22;;;13.60;99.90;;;;;;5082631;28;20036;-41
2022/10/22 00:22:32;;;;;;;2.90;2.60;;;13.60;99.90;;;;;;5070483;28;20506;-41
2022/10/22 00:24:57;;;;;;;5.13;3.20;;;13.60;99.90;;;;;;5082938;28;20036;-41
2022/10/22 00:27:23;;;;;;;4.65;2.78;;;13.60;99.90;;;;;;5069959;28;20036;-41
2022/10/22 00:29:49;;;;;;;5.72;3.30;;;13.60;99.90;;;;;;5083202;28;20157;-41
2022/10/22 00:32:14;;;;;;;4.15;3.15;;;13.60;99.90;;;;;;5068976;28;20052;-40
2022/10/22 00:34:40;;;;;;;3.20;2.88;;;13.60;99.90;;;;;;5062337;28;20514;-41
2022/10/22 00:37:05;;;;;;;4.18;2.67;;;13.70;99.90;;;;;;5071553;28;20024;-40
2022/10/22 00:39:31;;;;;;;3.50;2.90;;;13.70;99.90;;;;;;5064478;28;20024;-40
2022/10/22 00:41:57;;;;;;;3.40;2.80;;;13.70;99.90;;;;;;5069779;28;20383;-39
2022/10/22 00:44:57;;;;;;;4.05;2.90;;;13.70;99.90;;;;;;5067778;28;20480;-40
2022/10/22 00:47:24;;;;;;;3.45;2.60;;;13.70;99.90;;;;;;5071011;28;20039;-40
2022/10/22 00:49:50;;;;;;;4.15;2.65;;;13.70;99.90;;;;;;5065971;28;20021;-39
2022/10/22 00:52:16;;;;;;;6.72;4.18;;;13.70;99.90;;;;;;5069622;28;20032;-40
2022/10/22 00:54:42;;;;;;;4.60;4.10;;;13.70;99.90;;;;;;5068256;28;20037;-41
2022/10/22 00:57:08;;;;;;;6.72;4.65;;;13.70;99.90;;;;;;5067510;28;20118;-40
2022/10/22 00:59:35;;;;;;;7.80;5.75;;;13.70;99.90;;;;;;5070589;28;20025;-39
2022/10/22 01:02:00;;;;;;;6.68;5.45;;;13.70;99.90;;;;;;5064187;28;20017;-39
2022/10/22 01:04:26;;;;;;;6.90;6.15;;;13.70;99.90;;;;;;5073459;28;20028;-39
2022/10/22 01:06:51;;;;;;;6.82;6.13;;;13.70;99.90;;;;;;5063569;28;20799;-39
2022/10/22 01:09:25;;;;;;;6.55;5.55;;;13.70;99.90;;;;;;5073956;28;20036;-40
2022/10/22 01:12:11;;;;;;;6.70;6.00;;;13.60;99.90;;;;;;5064574;28;20040;-39
2022/10/22 01:14:55;;;;;;;6.60;5.90;;;13.60;99.90;;;;;;5073030;28;20090;-40
2022/10/22 01:17:32;;;;;;;7.18;5.55;;;13.50;99.90;;;;;;5062697;28;20025;-39
2022/10/22 01:20:28;;;;;;;6.38;5.63;;;13.50;99.90;;;;;;5072448;28;20521;-40
2022/10/22 01:23:34;;;;;;;6.80;5.20;;;13.60;99.90;;;;;;5077932;28;20064;-39
2022/10/22 01:26:10;;;;;;;6.18;4.40;;;13.60;99.90;;;;;;5078808;28;20046;-38
2022/10/22 01:28:57;;;;;;;4.78;3.70;;;13.60;99.90;;;;;;5073874;28;20120;-39
2022/10/22 01:31:28;;;;;;;5.43;3.97;;;13.60;99.90;;;;;;5080956;28;20051;-38
2022/10/22 01:33:54;;;;;;;5.13;3.70;;;13.60;99.90;;;;;;5077486;28;20082;-37
2022/10/22 01:36:20;;;;;;;5.38;3.50;;;13.50;99.90;;;;;;5081774;28;20420;-39
2022/10/22 01:38:48;;;;;;;7.60;3.50;;;13.50;99.90;;;;;;5079593;28;20074;-39
2022/10/22 01:41:14;;;;;;;5.82;3.80;;;13.60;99.90;;;;;;5079831;28;20024;-40
2022/10/22 01:43:39;;;;;;;4.18;3.78;;;13.60;99.90;;;;;;5080501;28;20029;-40
2022/10/22 01:46:08;;;;;;;6.07;3.70;;;13.60;99.90;;;;;;5077432;28;20070;-40
2022/10/22 01:48:46;;;;;;;3.50;3.20;;;13.60;99.90;;;;;;5083727;28;20053;-40
2022/10/22 01:51:30;;;;;;;6.22;3.30;;;13.60;99.90;;;;;;5076555;28;20035;-40
2022/10/22 01:54:26;;;;;;;5.03;3.47;;;13.60;99.90;;;;;;5082729;28;20040;-39
2022/10/22 01:57:11;;;;;;;3.60;3.20;;;13.50;99.90;;;;;;5057904;28;20041;-41
2022/10/22 02:00:06;;;;;;;4.65;3.90;;;13.50;99.90;;;;;;5073711;28;20475;-39
2022/10/22 02:02:46;;;;;;;3.67;3.30;;;13.50;99.90;;;;;;5066595;28;20025;-38
2022/10/22 02:05:36;;;;;;;5.30;3.88;;;13.50;99.90;;;;;;5075706;28;20031;-38
2022/10/22 02:08:09;;;;;;;5.20;4.70;;;13.40;99.90;;;;;;5066196;28;20044;-39
2022/10/22 02:10:41;;;;;;;6.38;4.40;;;13.40;99.90;;;;;;5077621;28;20032;-40
2022/10/22 02:13:11;;;;;;;7.32;4.45;;;13.40;99.90;;;;;;5065429;28;20039;-37
2022/10/22 02:15:38;;;;;;;5.05;4.03;;;13.40;99.90;;;;;;5077025;28;20073;-40
2022/10/22 02:18:08;;;;;;;6.32;3.90;;;13.40;99.90;;;;;;5066209;28;20024;-39
2022/10/22 02:20:36;;;;;;;6.15;3.95;;;13.40;99.90;;;;;;5075615;28;20020;-39
2022/10/22 02:23:03;;;;;;;4.38;3.53;;;13.40;99.90;;;;;;5068251;28;20043;-40
2022/10/22 02:25:34;;;;;;;7.60;3.63;;;13.40;99.90;;;;;;5071374;28;20358;-41
2022/10/22 02:28:11;;;;;;;5.78;3.60;;;13.40;99.90;;;;;;5069112;28;20032;-39
2022/10/22 02:30:40;;;;;;;4.10;3.67;;;13.40;99.90;;;;;;5072594;28;20024;-39
2022/10/22 02:33:21;;;;;;;4.82;3.75;;;13.40;99.90;;;;;;5069534;28;20052;-39
2022/10/22 02:35:48;;;;;;;4.63;3.20;;;13.40;99.90;;;;;;5072587;28;20035;-37
2022/10/22 02:38:14;;;;;;;5.78;3.80;;;13.40;99.90;;;;;;5074295;28;20024;-41
2022/10/22 02:40:40;;;;;;;4.43;3.50;;;13.40;99.90;;;;;;5073056;28;20039;-39
2022/10/22 02:43:06;;;;;;;4.15;3.50;;;13.40;99.90;;;;;;5072280;28;20032;-40
2022/10/22 02:45:32;;;;;;;4.25;3.45;;;13.40;99.90;;;;;;5070535;28;20048;-39
2022/10/22 02:47:58;;;;;;;5.95;3.20;;;13.40;99.90;;;;;;5075979;28;20023;-39
2022/10/22 02:50:23;;;;;;;3.97;3.45;;;13.40;99.90;;;;;;5082431;28;20013;-39
2022/10/22 02:52:49;;;;;;;4.03;3.63;;;13.40;99.90;;;;;;5072000;28;20773;-39
2022/10/22 02:55:15;;;;;;;3.95;3.55;;;13.40;99.90;;;;;;5082835;28;20028;-36
2022/10/22 02:57:40;;;;;;;5.65;3.90;;;13.40;99.90;;;;;;5075266;28;20059;-40
2022/10/22 03:00:07;;;;;;;7.65;4.10;;;13.40;99.90;;;;;;5063351;28;20035;-40
2022/10/22 03:02:33;;;;;;;5.05;3.88;;;13.40;99.90;;;;;;5076988;28;20024;-39
2022/10/22 03:04:59;;;;;;;4.75;4.15;;;13.40;99.90;;;;;;5064354;28;20021;-40
2022/10/22 03:07:27;;;;;;;5.10;3.90;;;13.40;99.90;;;;;;5075526;28;20032;-40
2022/10/22 03:09:52;;;;;;;5.68;3.45;;;13.40;99.90;;;;;;5064928;28;20078;-40
2022/10/22 03:12:18;;;;;;;4.85;3.58;;;13.40;99.90;;;;;;5073656;28;20031;-39
2022/10/22 03:14:43;;;;;;;5.30;3.45;;;13.40;99.90;;;;;;5065770;28;20773;-40
2022/10/22 03:17:09;;;;;;;4.93;3.75;;;13.40;99.90;;;;;;5071038;28;20027;-41
2022/10/22 03:19:34;;;;;;;4.15;3.40;;;13.40;99.90;;;;;;5069560;28;20033;-39
2022/10/22 03:22:08;;;;;;;5.53;3.40;;;13.40;99.90;;;;;;5068269;28;20019;-39
2022/10/22 03:24:40;;;;;;;4.60;3.20;;;13.40;99.90;;;;;;5071171;28;20065;-39
2022/10/22 03:27:06;;;;;;;4.80;3.73;;;13.40;99.90;;;;;;5067695;28;20436;-40
2022/10/22 03:29:35;;;;;;;4.13;3.28;;;13.40;99.90;;;;;;5072180;28;20361;-40
2022/10/22 03:32:01;;;;;;;4.95;3.30;;;13.40;99.90;;;;;;5065813;28;20040;-40
2022/10/22 03:34:26;;;;;;;4.88;3.30;;;13.40;99.90;;;;;;5074042;28;20241;-39
2022/10/22 03:36:53;;;;;;;3.42;2.92;;;13.40;99.90;;;;;;5066007;28;20028;-41
2022/10/22 03:39:21;;;;;;;5.57;3.00;;;13.40;99.90;;;;;;5074817;28;20028;-39
2022/10/22 03:41:48;;;;;;;4.45;2.90;;;13.40;99.90;;;;;;5064246;28;20033;-40
2022/10/22 03:44:14;;;;;;;3.90;2.92;;;13.40;99.90;;;;;;5075338;28;20037;-39
2022/10/22 03:49:25;;;;;;;3.65;2.70;;;13.40;99.90;;;;;;5055244;28;20030;-39
2022/10/22 03:51:51;;;;;;;3.47;2.55;;;13.40;99.90;;;;;;5083736;28;20016;-39
2022/10/22 03:54:17;;;;;;;4.95;3.00;;;13.40;99.90;;;;;;5070235;28;20058;-40
2022/10/22 03:56:42;;;;;;;4.53;2.78;;;13.30;99.90;;;;;;5071438;28;20025;-41
2022/10/22 03:59:08;;;;;;;3.60;2.50;;;13.30;99.90;;;;;;5074821;28;20777;-40
2022/10/22 04:01:34;;;;;;;3.85;2.53;;;13.20;99.90;;;;;;5063074;28;20717;-41
2022/10/22 04:03:59;;;;;;;5.00;2.70;;;13.20;99.90;;;;;;5071093;28;20500;-40
2022/10/22 04:06:25;;;;;;;3.35;2.58;;;13.20;99.90;;;;;;5065228;28;20036;-40
2022/10/22 04:08:50;;;;;;;3.90;2.70;;;13.20;99.90;;;;;;5069530;28;20026;-38
2022/10/22 04:11:16;;;;;;;5.28;2.50;;;13.20;99.90;;;;;;5067640;28;20163;-39
2022/10/22 04:13:42;;;;;;;6.93;2.75;;;13.30;99.90;;;;;;5067364;28;20036;-39
2022/10/22 04:16:16;;;;;;;3.83;2.67;;;13.30;99.90;;;;;;5070982;28;20036;-40
2022/10/22 04:18:43;;;;;;;5.05;2.80;;;13.30;99.90;;;;;;5065105;28;20028;-39
2022/10/22 04:21:10;;;;;;;4.53;2.60;;;13.30;99.90;;;;;;5072070;28;20036;-41
2022/10/22 04:23:36;;;;;;;3.22;2.50;;;13.20;99.90;;;;;;5063520;28;20539;-40
2022/10/22 04:26:06;;;;;;;3.50;2.90;;;13.20;99.90;;;;;;5073929;28;20065;-40
2022/10/22 04:28:32;;;;;;;5.57;2.65;;;13.20;99.90;;;;;;5063858;28;21132;-37
2022/10/22 04:30:58;;;;;;;4.47;2.40;;;13.20;99.90;;;;;;5073986;28;20027;-39
2022/10/22 04:33:26;;;;;;;3.03;2.63;;;13.20;99.90;;;;;;5063151;28;20040;-38
2022/10/22 04:35:52;;;;;;;3.60;2.70;;;13.20;99.90;;;;;;5071107;28;20030;-37
2022/10/22 04:38:17;;;;;;;3.95;2.63;;;13.10;99.90;;;;;;5081902;28;20036;-39
2022/10/22 04:40:43;;;;;;;5.72;2.80;;;13.20;99.90;;;;;;5070148;28;20082;-37
2022/10/22 04:43:09;;;;;;;3.47;2.60;;;13.10;99.90;;;;;;5082805;28;20396;-40
2022/10/22 04:45:35;;;;;;;3.72;2.53;;;13.10;99.90;;;;;;5071373;28;20147;-38
2022/10/22 04:48:01;;;;;;;5.38;2.72;;;13.10;99.90;;;;;;5081917;28;20054;-37
2022/10/22 04:50:26;;;;;;;5.25;2.60;;;13.10;99.90;;;;;;5074004;28;20525;-38
2022/10/22 04:52:55;;;;;;;2.50;2.15;;;13.10;99.90;;;;;;5078694;28;20024;-40
2022/10/22 04:55:20;;;;;;;3.05;2.25;;;13.10;99.90;;;;;;5075999;28;20024;-40
2022/10/22 04:57:46;;;;;;;3.47;2.72;;;13.10;99.90;;;;;;5063914;28;20024;-39
2022/10/22 05:00:12;;;;;;;4.30;2.50;;;13.10;99.90;;;;;;5065614;28;20024;-38
2022/10/22 05:02:37;;;;;;;4.63;2.70;;;13.10;99.90;;;;;;5071842;28;20485;-40
2022/10/22 05:05:03;;;;;;;3.42;2.60;;;13.00;99.90;;;;;;5064249;28;20024;-40
2022/10/22 05:07:29;;;;;;;6.38;3.20;;;13.00;99.90;;;;;;5073895;28;20078;-41
2022/10/22 05:09:54;;;;;;;5.78;2.70;;;13.10;99.90;;;;;;5067144;28;20429;-41
2022/10/22 05:12:20;;;;;;;3.90;2.47;;;13.00;99.90;;;;;;5077275;28;20064;-40
2022/10/22 05:14:48;;;;;;;5.30;2.60;;;13.10;99.90;;;;;;5065889;28;20068;-40
2022/10/22 05:17:14;;;;;;;4.95;2.22;;;13.00;99.90;;;;;;5078414;28;20540;-42
2022/10/22 05:19:39;;;;;;;3.60;2.30;;;13.10;99.90;;;;;;5066789;28;20024;-40
2022/10/22 05:22:05;;;;;;;4.57;2.40;;;13.10;99.90;;;;;;5078484;28;20062;-40
2022/10/22 05:24:36;;;;;;;2.85;2.30;;;13.10;99.90;;;;;;5066931;28;20025;-39
2022/10/22 05:27:01;;;;;;;2.45;2.05;;;13.10;99.90;;;;;;5078592;28;20036;-40
2022/10/22 05:29:27;;;;;;;3.00;2.47;;;13.10;99.90;;;;;;5066073;28;20141;-40
2022/10/22 05:31:52;;;;;;;6.15;2.80;;;13.10;99.90;;;;;;5074714;28;20048;-39
2022/10/22 05:34:18;;;;;;;4.72;2.40;;;13.20;99.90;;;;;;5069112;28;20063;-41
2022/10/22 05:36:44;;;;;;;4.20;2.63;;;13.20;99.90;;;;;;5071943;28;20458;-41
2022/10/22 05:39:10;;;;;;;4.85;2.42;;;13.20;99.90;;;;;;5071523;28;20063;-38
2022/10/22 05:41:38;;;;;;;4.88;2.75;;;13.20;99.90;;;;;;5069844;28;20499;-40
2022/10/22 05:44:04;;;;;;;3.50;2.58;;;13.20;99.90;;;;;;5074799;28;20074;-40
2022/10/22 05:46:34;;;;;;;3.70;2.30;;;13.20;99.90;;;;;;5066966;28;20736;-38
2022/10/22 05:49:02;;;;;;;4.40;2.72;;;13.20;99.90;;;;;;5075996;28;20047;-37
2022/10/22 05:51:33;;;;;;;4.53;2.70;;;13.20;99.90;;;;;;5067225;28;20934;-37
2022/10/22 05:54:00;;;;;;;5.47;2.67;;;13.20;99.90;;;;;;5076965;28;20518;-40
2022/10/22 05:56:28;;;;;;;4.55;2.72;;;13.20;99.90;;;;;;5066999;28;20068;-38
2022/10/22 05:58:54;;;;;;;4.45;2.60;;;13.20;99.90;;;;;;5076594;28;20456;-39
2022/10/22 06:01:22;;;;;;;4.78;2.58;;;13.20;99.90;;;;;;5065802;28;20023;-41
2022/10/22 06:03:48;;;;;;;6.95;2.80;;;13.10;99.90;;;;;;5073206;28;20074;-37
2022/10/22 06:06:20;;;;;;;3.40;2.78;;;13.10;99.90;;;;;;5085721;28;20027;-40
2022/10/22 06:08:50;;;;;;;4.90;2.63;;;13.10;99.90;;;;;;5073480;28;20043;-40
2022/10/22 06:11:17;;;;;;;4.72;2.63;;;13.10;99.90;;;;;;5085378;28;20270;-40
2022/10/22 06:13:44;;;;;;;5.03;3.10;;;13.10;99.90;;;;;;5073279;28;20036;-40
2022/10/22 06:16:10;;;;;;;3.80;2.67;;;13.10;99.90;;;;;;5084596;28;20028;-39
2022/10/22 06:18:36;;;;;;;5.13;2.80;;;13.10;99.90;;;;;;5074055;28;20035;-38
2022/10/22 06:21:10;;;;;;;3.70;2.55;;;13.10;99.90;;;;;;5083793;28;20041;-41
2022/10/22 06:23:37;;;;;;;5.10;2.88;;;13.20;99.90;;;;;;5075547;28;20416;-40
2022/10/22 06:26:03;;;;;;;5.05;2.75;;;13.30;99.90;;;;;;5082615;28;20027;-40
2022/10/22 06:28:29;;;;;;;5.13;2.85;;;13.30;99.90;;;;;;5078416;28;20428;-41
2022/10/22 06:30:57;;;;;;;3.92;2.53;;;13.40;99.90;;;;;;5079655;28;20539;-44
2022/10/22 06:33:23;;;;;;;3.33;2.60;;;13.40;99.90;;;;;;5081101;28;20056;-41
2022/10/22 06:35:48;;;;;;;3.53;2.47;;;13.50;99.90;;;;;;5065804;28;20253;-38
2022/10/22 06:38:17;;;;;;;4.22;2.15;;;13.50;99.90;;;;;;5068021;28;20020;-41
2022/10/22 06:40:43;;;;;;;4.55;2.70;;;13.50;99.90;;;;;;5081543;28;20233;-39
2022/10/22 06:43:13;;;;;;;4.82;2.40;;;13.50;99.90;;;;;;5083154;28;20063;-40
2022/10/22 06:45:38;;;;;;;5.72;2.50;;;13.50;99.90;;;;;;5069062;28;20115;-39
2022/10/22 06:48:05;;;;;;;6.07;3.00;;;13.50;99.90;;;;;;5068833;28;20112;-39
2022/10/22 06:50:32;;;;;;;4.85;2.28;;;13.50;99.90;;;;;;5071804;28;20044;-40
2022/10/22 06:52:58;;;;;;;3.58;2.28;;;13.50;99.90;;;;;;5067493;28;20016;-41
2022/10/22 06:55:26;;;;;;;4.40;2.60;;;13.50;99.90;;;;;;5067778;28;20036;-40
2022/10/22 06:57:51;;;;;;;5.20;2.70;;;13.50;99.90;;;;;;5068437;28;20012;-41
2022/10/22 07:00:17;;;;;;;3.80;2.35;;;13.50;99.90;;;;;;5068852;28;20490;-39
2022/10/22 07:02:43;;;;;;;2.92;2.55;;;13.50;99.90;;;;;;5084159;28;20039;-40
2022/10/22 07:05:08;;;;;;;3.78;2.30;;;13.60;99.90;;;;;;5082960;28;20020;-40
2022/10/22 07:07:34;;;;;;;4.45;2.28;;;13.70;99.90;;;;;;5083987;28;20127;-40
2022/10/22 07:09:59;;;;;;;4.65;2.30;;;13.70;99.90;;;;;;5077796;28;20044;-39
2022/10/22 07:12:25;;;;;;;3.67;2.30;;;13.70;99.90;;;;;;5081802;28;20616;-38
2022/10/22 07:14:51;;;;;;;4.03;2.33;;;13.80;99.90;;;;;;5078944;28;20044;-40
2022/10/22 07:17:16;;;;;;;5.28;2.50;;;13.80;99.90;;;;;;5079584;28;20011;-39
2022/10/22 07:19:42;;;;;;;2.97;2.35;;;13.90;99.90;;;;;;5080560;28;20035;-38
2022/10/22 07:22:07;;;;;;;5.68;2.10;;;13.90;99.90;;;;;;5078175;28;20687;-39
2022/10/22 07:24:33;;;;;;;4.40;2.10;;;14.00;99.90;;;;;;5082561;28;20024;-40
2022/10/22 07:26:58;;;;;;;4.72;2.40;;;14.10;99.90;;;;;;5076951;28;20024;-40
2022/10/22 07:29:24;;;;;;;3.85;2.35;;;14.10;99.90;;;;;;5082546;28;20754;-39
2022/10/22 07:31:49;;;;;;;5.82;2.60;;;14.20;99.90;;;;;;5076345;28;20098;-40
2022/10/22 07:34:18;;;;;;;3.72;2.30;;;14.30;99.90;;;;;;5082238;28;20039;-37
2022/10/22 07:36:43;;;;;;;4.60;2.30;;;14.30;99.90;;;;;;5076578;28;20043;-38
2022/10/22 07:39:09;;;;;;;4.38;2.30;;;14.30;99.90;;;;;;5063881;28;20063;-39
2022/10/22 07:41:34;;;;;;;3.90;2.30;;;14.40;99.90;;;;;;5077094;28;20581;-40
2022/10/22 07:44:03;;;;;;;5.43;2.58;;;14.40;99.90;;;;;;5083601;28;20038;-37
2022/10/22 07:46:28;;;;;;;3.63;2.67;;;14.50;99.90;;;;;;5077566;28;20808;-41
2022/10/22 07:48:54;;;;;;;3.08;2.30;;;14.60;99.90;;;;;;5083035;28;20020;-39
2022/10/22 07:51:20;;;;;;;5.32;2.40;;;14.60;99.90;;;;;;5076777;28;20476;-39
2022/10/22 07:53:45;;;;;;;3.85;2.50;;;14.60;99.90;;;;;;5081377;28;20031;-38
2022/10/22 07:56:11;;;;;;;3.22;2.28;;;14.60;99.90;;;;;;5064716;28;20024;-39
2022/10/22 07:58:37;;;;;;;4.22;2.00;;;14.60;99.90;;;;;;5065114;28;20534;-35
2022/10/22 08:01:06;;;;;;;4.15;2.03;;;14.60;99.90;;;;;;5081646;28;20032;-35
2022/10/22 08:03:32;;;;;;;7.03;2.60;;;14.60;99.90;;;;;;5073798;28;20020;-40
2022/10/22 08:05:59;;;;;;;3.95;2.28;;;14.60;99.90;;;;;;5076562;28;20478;-39
2022/10/22 08:08:28;;;;;;;5.72;2.35;;;14.60;99.90;;;;;;5080937;28;20030;-40
2022/10/22 08:10:55;;;;;;;3.50;2.15;;;14.80;99.90;;;;;;5080435;28;20106;-36
2022/10/22 08:13:22;;;;;;;2.67;2.00;;;14.80;99.90;;;;;;5082098;28;20032;-37
2022/10/22 08:15:47;;;;;;;4.15;2.22;;;14.90;99.90;;;;;;5081617;28;20628;-40
2022/10/22 08:18:13;;;;;;;2.22;1.92;;;15.00;99.90;;;;;;5076164;28;20103;-39
2022/10/22 08:20:39;;;;;;;4.72;2.22;;;15.10;99.90;;;;;;5083138;28;20505;-40
2022/10/22 08:23:05;;;;;;;4.35;2.20;;;15.20;99.90;;;;;;5076336;28;20028;-40
2022/10/22 08:25:37;;;;;;;3.38;1.80;;;15.30;99.90;;;;;;5082456;28;20061;-35
2022/10/22 08:28:03;;;;;;;3.65;1.83;;;15.30;99.90;;;;;;5077660;28;20028;-40
2022/10/22 08:30:28;;;;;;;7.03;2.42;;;15.40;99.90;;;;;;5081691;28;20024;-40
2022/10/22 08:32:54;;;;;;;4.82;1.70;;;15.40;99.90;;;;;;5080396;28;20044;-40
2022/10/22 08:35:20;;;;;;;5.07;2.17;;;15.40;99.90;;;;;;5081205;28;20040;-40
2022/10/22 08:37:46;;;;;;;5.22;2.17;;;15.50;99.90;;;;;;5079751;28;20039;-39
2022/10/22 08:40:24;;;;;;;6.43;2.20;;;15.50;99.90;;;;;;5082297;28;20036;-39
2022/10/22 08:43:18;;;;;;;4.28;1.85;;;15.50;99.90;;;;;;5077018;28;20543;-40
2022/10/22 08:45:46;;;;;;;5.43;2.42;;;15.50;99.90;;;;;;5081807;28;20054;-38
2022/10/22 08:48:30;;;;;;;5.18;1.40;;;15.50;99.90;;;;;;5079584;28;20075;-41
2022/10/22 08:50:56;;;;;;;4.65;1.85;;;15.60;99.90;;;;;;5082740;28;20020;-38
2022/10/22 08:53:31;;;;;;;4.07;2.10;;;15.70;99.90;;;;;;5081175;28;20036;-37
2022/10/22 08:55:57;;;;;;;4.70;1.90;;;15.70;99.90;;;;;;5082807;28;20369;-38
2022/10/22 08:58:48;;;;;;;6.05;2.13;;;15.70;99.90;;;;;;5076500;28;20047;-34
2022/10/22 09:01:19;;;;;;;2.92;1.60;;;15.80;99.90;;;;;;5079803;28;20028;-39
2022/10/22 09:04:00;;;;;;;7.43;2.00;;;15.90;99.90;;;;;;5076070;28;20017;-38
2022/10/22 09:06:30;;;;;;;5.10;1.67;;;15.90;99.90;;;;;;5082053;28;20039;-36
2022/10/22 09:08:57;;;;;;;3.97;1.60;;;16.00;99.90;;;;;;5081405;28;20760;-40
2022/10/22 09:11:36;;;;;;;5.45;1.60;;;16.00;99.90;;;;;;5082604;28;20024;-40
2022/10/22 09:14:03;;;;;;;2.53;1.30;;;16.00;99.90;;;;;;5080865;28;20044;-40
2022/10/22 09:16:34;;;;;;;5.38;1.40;;;16.00;99.90;;;;;;5082068;28;20657;-39
2022/10/22 09:19:22;;;;;;;5.22;1.95;;;16.00;99.90;;;;;;5080908;28;20030;-40
2022/10/22 09:22:14;;;;;;;5.70;1.67;;;16.00;99.90;;;;;;5082046;28;20032;-39
2022/10/22 09:24:46;;;;;;;4.65;1.50;;;16.00;99.90;;;;;;5082219;28;20016;-40
2022/10/22 09:27:15;;;;;;;4.78;1.58;;;16.00;99.90;;;;;;5081959;28;20028;-39
2022/10/22 09:29:42;;;;;;;3.60;1.77;;;16.00;99.90;;;;;;5075585;28;20451;-38
2022/10/22 09:32:08;;;;;;;4.15;1.30;;;16.00;99.90;;;;;;5080150;28;20112;-40
2022/10/22 09:34:33;;;;;;;4.45;1.40;;;16.00;99.90;;;;;;5080756;28;20032;-41
2022/10/22 09:37:04;;;;;;;3.65;1.45;;;16.00;99.90;;;;;;5082699;28;20527;-38
2022/10/22 09:39:40;;;;;;;5.03;1.40;;;16.00;99.90;;;;;;5081905;28;20027;-38
2022/10/22 09:42:06;;;;;;;3.53;1.30;;;16.00;99.90;;;;;;5082261;28;20027;-40
2022/10/22 09:44:36;;;;;;;4.15;1.67;;;16.10;99.90;;;;;;5081175;28;20051;-38
2022/10/22 09:47:32;;;;;;;3.78;1.40;;;16.20;99.90;;;;;;5074525;28;20050;-37
2022/10/22 09:50:10;;;;;;;4.45;1.40;;;16.20;99.90;;;;;;5079271;28;20099;-40
2022/10/22 09:52:39;;;;;;;4.68;1.50;;;16.30;99.90;;;;;;5082541;28;20057;-40
2022/10/22 09:55:18;;;;;;;6.22;1.40;;;16.30;99.90;;;;;;5084230;28;20047;-41
2022/10/22 09:57:51;;;;;;;2.78;1.30;;;16.30;99.90;;;;;;5083886;28;20032;-40
2022/10/22 10:00:18;;;;;;;2.65;1.38;;;16.40;99.90;;;;;;5083701;28;20031;-39
2022/10/22 10:02:44;;;;;;;3.70;1.20;;;16.40;99.90;;;;;;5084830;28;20020;-40
2022/10/22 10:05:24;;;;;;;3.80;1.40;;;16.50;99.90;;;;;;5083917;28;20143;-40
2022/10/22 10:07:49;;;;;;;4.50;1.58;;;16.60;99.90;;;;;;5086166;28;20172;-39
2022/10/22 10:10:39;;;;;;;3.97;1.40;;;16.60;99.90;;;;;;5082967;28;20032;-39
2022/10/22 10:13:13;;;;;;;6.80;1.73;;;16.60;99.90;;;;;;5079159;28;20101;-38
2022/10/22 10:16:06;;;;;;;4.72;1.92;;;16.70;99.90;;;;;;5071986;28;20118;-40
2022/10/22 10:18:37;;;;;;;3.78;1.55;;;16.70;99.90;;;;;;5083589;28;20471;-41
2022/10/22 10:21:16;;;;;;;4.78;1.58;;;16.70;99.90;;;;;;5085527;28;20035;-40
2022/10/22 10:23:44;;;;;;;4.18;1.50;;;16.80;99.90;;;;;;5085059;28;20024;-40
2022/10/22 10:26:19;;;;;;;2.75;1.33;;;16.80;99.90;;;;;;5081057;28;20038;-39
2022/10/22 10:29:12;;;;;;;3.65;1.42;;;16.90;99.90;;;;;;5085538;28;20031;-40
2022/10/22 10:31:48;;;;;;;4.47;1.52;;;16.90;99.90;;;;;;5078205;28;20060;-39
2022/10/22 10:34:19;;;;;;;4.60;1.42;;;16.90;99.90;;;;;;5084421;28;20040;-40
2022/10/22 10:37:15;;;;;;;3.97;1.40;;;16.90;99.90;;;;;;5079067;28;20147;-40
2022/10/22 10:40:01;;;;;;;3.75;1.40;;;16.90;99.90;;;;;;5085230;28;20516;-41
2022/10/22 10:42:39;;;;;;;4.35;1.70;;;16.90;99.90;;;;;;5079740;28;20070;-41
2022/10/22 10:45:39;;;;;;;3.53;1.70;;;16.90;99.90;;;;;;5078383;28;20116;-41
2022/10/22 10:48:04;;;;;;;4.82;1.60;;;16.90;99.90;;;;;;5083865;28;20135;-40
2022/10/22 10:50:42;;;;;;;5.18;1.67;;;17.00;99.90;;;;;;5083865;28;20536;-40
2022/10/22 10:53:24;;;;;;;4.63;1.80;;;17.10;99.90;;;;;;5083208;28;20109;-39
2022/10/22 10:56:22;;;;;;;5.95;2.20;;;17.20;99.90;;;;;;5084898;28;20117;-41
2022/10/22 10:59:12;;;;;;;4.78;1.60;;;17.30;99.90;;;;;;5080517;28;20035;-39
2022/10/22 11:01:54;;;;;;;4.28;1.65;;;17.30;99.90;;;;;;5070673;28;20110;-38
2022/10/22 11:04:27;;;;;;;3.33;1.70;;;17.40;99.90;;;;;;5079487;28;20801;-40
2022/10/22 11:06:58;;;;;;;6.13;2.08;;;17.50;99.90;;;;;;5082946;28;20350;-38
2022/10/22 11:09:29;;;;;;;3.85;1.80;;;17.60;99.90;;;;;;5080013;28;20506;-41
2022/10/22 11:12:07;;;;;;;7.38;1.73;;;17.60;99.90;;;;;;5082767;28;20680;-40
2022/10/22 11:14:54;;;;;;;6.43;2.17;;;17.60;99.90;;;;;;5079015;28;20792;-37
2022/10/22 11:17:24;;;;;;;4.50;1.50;;;17.70;99.90;;;;;;5070418;28;20374;-40
2022/10/22 11:19:59;;;;;;;4.95;1.88;;;17.70;99.90;;;;;;5079550;28;20504;-39
2022/10/22 11:22:42;;;;;;;5.97;2.92;;;17.80;99.90;;;;;;5083177;28;20042;-40
2022/10/22 11:25:26;;;;;;;6.72;1.60;;;17.90;99.90;;;;;;5080891;28;20016;-40
2022/10/22 11:28:22;;;;;;;5.13;1.70;;;18.00;99.90;;;;;;5083138;28;20494;-39
2022/10/22 11:31:11;;;;;;;6.80;2.00;;;18.00;99.90;;;;;;5084842;28;20390;-39
2022/10/22 11:34:11;;;;;;;6.68;1.88;;;18.10;99.90;;;;;;5083098;28;20040;-40
2022/10/22 11:36:38;;;;;;;3.83;1.40;;;18.20;99.90;;;;;;5056079;28;20370;-39
2022/10/22 11:39:03;;;;;;;3.28;1.40;;;18.30;99.90;;;;;;5076284;28;20103;-40
2022/10/22 11:41:33;;;;;;;5.55;1.60;;;18.40;99.90;;;;;;5081991;28;20189;-41
2022/10/22 11:44:18;;;;;;;7.15;1.80;;;18.40;99.90;;;;;;5077643;28;20017;-41
2022/10/22 11:46:57;;;;;;;6.32;1.50;;;18.40;99.90;;;;;;5083412;28;20024;-39
2022/10/22 11:49:26;;;;;;;5.35;1.48;;;18.50;99.90;;;;;;5079121;28;20111;-40
2022/10/22 11:52:21;;;;;;;6.05;1.75;;;18.50;99.90;;;;;;5080721;28;20031;-41
2022/10/22 11:54:47;;;;;;;4.18;1.20;;;18.50;99.90;;;;;;5075543;28;20059;-41
2022/10/22 11:57:15;;;;;;;9.57;2.10;;;18.40;99.90;;;;;;5083513;28;20059;-40
2022/10/22 11:59:51;;;;;;;5.40;1.42;;;18.40;99.90;;;;;;5076325;28;20048;-39
2022/10/22 12:02:41;;;;;;;6.65;1.60;;;18.40;99.90;;;;;;5083212;28;20068;-39
2022/10/22 12:05:22;;;;;;;8.27;1.75;;;18.30;99.90;;;;;;5076906;28;20020;-41
2022/10/22 12:07:55;;;;;;;7.22;1.50;;;18.20;99.90;;;;;;5083229;28;20032;-38
2022/10/22 12:10:32;;;;;;;6.32;1.60;;;18.20;99.90;;;;;;5078223;28;20020;-40
2022/10/22 12:13:14;;;;;;;5.85;1.42;;;18.20;99.90;;;;;;5083138;28;20028;-40
2022/10/22 12:15:47;;;;;;;7.63;1.50;;;18.20;99.90;;;;;;5074135;28;20028;-40
2022/10/22 12:18:14;;;;;;;5.32;1.65;;;18.30;99.90;;;;;;5075622;28;20024;-39
2022/10/22 12:20:39;;;;;;;4.07;1.35;;;18.30;99.90;;;;;;5079071;28;20016;-39
2022/10/22 12:23:10;;;;;;;7.97;1.77;;;18.40;99.90;;;;;;5082912;28;20034;-41
2022/10/22 12:25:35;;;;;;;7.32;1.52;;;18.40;99.90;;;;;;5079645;28;20020;-40
2022/10/22 12:28:01;;;;;;;5.00;1.60;;;18.40;99.90;;;;;;5082971;28;20371;-39
2022/10/22 12:30:31;;;;;;;4.38;1.42;;;18.30;99.90;;;;;;5076024;28;20770;-40
2022/10/22 12:33:01;;;;;;;7.00;1.95;;;18.30;99.90;;;;;;5083388;28;20135;-38
2022/10/22 12:35:29;;;;;;;7.15;1.92;;;18.20;99.90;;;;;;5078741;28;20066;-38
2022/10/22 12:38:12;;;;;;;4.43;1.35;;;18.10;99.90;;;;;;5082032;28;20753;-40
2022/10/22 12:40:39;;;;;;;7.07;1.60;;;18.00;99.90;;;;;;5078556;28;20020;-41
2022/10/22 12:43:14;;;;;;;4.88;1.40;;;17.90;99.90;;;;;;5074901;28;20020;-40
2022/10/22 12:45:42;;;;;;;6.97;1.55;;;17.90;99.90;;;;;;5081435;28;20071;-39
2022/10/22 12:48:16;;;;;;;5.55;1.30;;;17.80;99.90;;;;;;5081666;28;20557;-40
2022/10/22 12:50:44;;;;;;;5.43;1.50;;;17.80;99.90;;;;;;5081089;28;20042;-40
2022/10/22 12:53:24;;;;;;;5.35;1.60;;;17.70;99.90;;;;;;5082036;28;20028;-40
2022/10/22 12:55:52;;;;;;;8.43;1.45;;;17.80;99.90;;;;;;5081427;28;20027;-41
2022/10/22 12:58:26;;;;;;;4.95;1.40;;;17.80;99.90;;;;;;5079482;28;20593;-41
2022/10/22 13:00:57;;;;;;;4.78;1.30;;;17.90;99.90;;;;;;5079047;28;20029;-41
2022/10/22 13:03:31;;;;;;;8.55;1.70;;;17.90;99.90;;;;;;5082189;28;20733;-39
2022/10/22 13:06:11;;;;;;;6.38;1.52;;;18.00;99.90;;;;;;5080698;28;20028;-40
2022/10/22 13:08:38;;;;;;;5.55;1.83;;;18.10;99.90;;;;;;5071786;28;20391;-41